Time;durP1;ratioP1;P1;durP2;ratioP2;P2;SDS_P1;SDS_P2;PMS_P1;PMS_P2;Temp;Humidity;BMP_temperature;BMP_pressure;BME280_temperature;BME280_humidity;BME280_pressure;Samples;Min_cycle;Max_cycle;Signal;HPM_P1;HPM_P2
2024/03/10 00:00:53;;;;;;;;;;;19.70;47.00;;;;;;8363555;28;19927;-58
2024/03/10 00:04:54;;;;;;;;;;;19.70;47.00;;;;;;8363642;28;19915;-55
2024/03/10 00:08:54;;;;;;;;;;;19.60;47.00;;;;;;8355372;28;19967;-57
2024/03/10 00:12:55;;;;;;;;;;;19.70;47.00;;;;;;8362671;28;19916;-57
2024/03/10 00:16:56;;;;;;;;;;;19.70;47.10;;;;;;8333830;28;19928;-57
2024/03/10 00:20:57;;;;;;;;;;;19.80;46.40;;;;;;8352947;28;19909;-57
2024/03/10 00:24:57;;;;;;;;;;;19.90;46.10;;;;;;8362415;28;19905;-56
2024/03/10 00:28:58;;;;;;;;;;;19.90;45.70;;;;;;8362679;28;19909;-56
2024/03/10 00:32:59;;;;;;;;;;;20.00;45.50;;;;;;8337847;28;20330;-57
2024/03/10 00:36:59;;;;;;;;;;;20.00;45.40;;;;;;8333738;28;19917;-60
2024/03/10 00:41:00;;;;;;;;;;;20.00;45.50;;;;;;8353513;28;19927;-59
2024/03/10 00:45:01;;;;;;;;;;;20.10;46.00;;;;;;8361987;28;19959;-58
2024/03/10 00:49:01;;;;;;;;;;;20.00;45.70;;;;;;8357368;28;19953;-58
2024/03/10 00:53:02;;;;;;;;;;;20.00;45.90;;;;;;8343981;28;19924;-58
2024/03/10 00:57:03;;;;;;;;;;;19.90;46.50;;;;;;8336014;28;19990;-59
2024/03/10 01:01:04;;;;;;;;;;;19.80;46.10;;;;;;8330060;28;20611;-58
2024/03/10 01:05:05;;;;;;;;;;;19.90;46.00;;;;;;8339373;28;19916;-57
2024/03/10 01:09:08;;;;;;;;;;;19.90;45.80;;;;;;8349423;28;19905;-57
2024/03/10 01:13:09;;;;;;;;;;;19.90;45.20;;;;;;8346956;28;19917;-57
2024/03/10 01:17:10;;;;;;;;;;;20.00;44.80;;;;;;8328067;28;19936;-57
2024/03/10 01:21:11;;;;;;;;;;;20.00;44.40;;;;;;8328164;28;19920;-57
2024/03/10 01:25:11;;;;;;;;;;;20.00;44.10;;;;;;8326906;28;19916;-57
2024/03/10 01:29:12;;;;;;;;;;;20.00;43.80;;;;;;8328159;28;19916;-58
2024/03/10 01:33:13;;;;;;;;;;;20.00;43.70;;;;;;8327885;28;20371;-58
2024/03/10 01:37:13;;;;;;;;;;;20.00;43.60;;;;;;8327611;28;19917;-57
2024/03/10 01:41:14;;;;;;;;;;;19.90;44.60;;;;;;8327741;28;19932;-58
2024/03/10 01:45:15;;;;;;;;;;;19.70;45.50;;;;;;8359562;28;19915;-57
2024/03/10 01:49:16;;;;;;;;;;;19.70;45.00;;;;;;8360973;28;19911;-57
2024/03/10 01:53:16;;;;;;;;;;;19.80;44.50;;;;;;8360668;28;19919;-58
2024/03/10 01:57:17;;;;;;;;;;;19.80;44.10;;;;;;8359243;28;19974;-58
2024/03/10 02:01:18;;;;;;;;;;;19.80;43.80;;;;;;8360358;28;19916;-58
2024/03/10 02:05:19;;;;;;;;;;;19.90;44.20;;;;;;8359989;28;19908;-57
2024/03/10 02:09:21;;;;;;;;;;;19.90;43.50;;;;;;8360004;28;19916;-57
2024/03/10 02:13:22;;;;;;;;;;;19.80;43.40;;;;;;8359576;28;19927;-57
2024/03/10 02:17:25;;;;;;;;;;;19.90;43.20;;;;;;8359912;28;20293;-56
2024/03/10 02:21:27;;;;;;;;;;;19.80;43.10;;;;;;8358828;28;19904;-57
2024/03/10 02:25:35;;;;;;;;;;;19.80;43.00;;;;;;8359811;28;20332;-57
2024/03/10 02:29:58;;;;;;;;;;;19.70;44.30;;;;;;8359667;28;20401;-57
2024/03/10 02:47:12;;;;;;;;;;;19.70;43.60;;;;;;8366153;28;19909;-57
2024/03/10 02:51:13;;;;;;;;;;;19.70;43.20;;;;;;8365871;28;19968;-57
2024/03/10 02:55:13;;;;;;;;;;;19.80;43.20;;;;;;8365733;28;19905;-57
2024/03/10 02:59:14;;;;;;;;;;;19.80;43.00;;;;;;8365836;28;19909;-57
2024/03/10 03:03:15;;;;;;;;;;;19.80;42.90;;;;;;8365503;28;20003;-57
2024/03/10 03:07:18;;;;;;;;;;;19.80;42.70;;;;;;8365473;28;20410;-57
2024/03/10 03:11:18;;;;;;;;;;;19.80;42.60;;;;;;8365202;28;19921;-57
2024/03/10 03:15:19;;;;;;;;;;;19.70;43.30;;;;;;8364967;28;19916;-57
2024/03/10 03:19:19;;;;;;;;;;;19.50;44.50;;;;;;8366048;28;19908;-56
2024/03/10 03:23:20;;;;;;;;;;;19.50;44.90;;;;;;8364865;28;19912;-57
2024/03/10 03:27:21;;;;;;;;;;;19.50;43.70;;;;;;8364730;28;20416;-57
2024/03/10 03:31:21;;;;;;;;;;;19.60;43.40;;;;;;8364667;28;20321;-57
2024/03/10 03:35:22;;;;;;;;;;;19.60;43.00;;;;;;8364649;28;19967;-57
2024/03/10 03:39:22;;;;;;;;;;;19.60;42.80;;;;;;8364288;28;19970;-57
2024/03/10 03:43:23;;;;;;;;;;;19.70;42.70;;;;;;8364322;28;19916;-57
2024/03/10 03:47:26;;;;;;;;;;;19.70;42.50;;;;;;8364307;28;19915;-57
2024/03/10 03:51:27;;;;;;;;;;;19.70;42.40;;;;;;8363934;28;20366;-57
2024/03/10 03:55:28;;;;;;;;;;;19.70;42.30;;;;;;8363648;28;20345;-57
2024/03/10 03:59:28;;;;;;;;;;;19.80;42.30;;;;;;8363750;28;20306;-56
2024/03/10 04:03:29;;;;;;;;;;;19.60;43.00;;;;;;8363785;28;19913;-57
2024/03/10 04:07:29;;;;;;;;;;;19.50;43.90;;;;;;8363672;28;20492;-57
2024/03/10 04:11:30;;;;;;;;;;;19.50;43.80;;;;;;8363344;28;19917;-57
2024/03/10 04:15:30;;;;;;;;;;;19.50;43.20;;;;;;8363422;28;19920;-56
2024/03/10 04:19:31;;;;;;;;;;;19.60;43.30;;;;;;8363123;28;19905;-57
2024/03/10 04:23:32;;;;;;;;;;;19.70;42.60;;;;;;8363160;28;20139;-57
2024/03/10 04:27:34;;;;;;;;;;;19.60;42.40;;;;;;8363122;28;19909;-57
2024/03/10 04:31:34;;;;;;;;;;;19.70;42.30;;;;;;8362865;28;20378;-57
2024/03/10 04:35:37;;;;;;;;;;;19.70;42.20;;;;;;8362813;28;20349;-57
2024/03/10 04:39:38;;;;;;;;;;;19.70;42.10;;;;;;8362886;28;19954;-57
2024/03/10 04:43:39;;;;;;;;;;;19.70;41.90;;;;;;8362251;28;19909;-57
2024/03/10 04:47:39;;;;;;;;;;;19.70;41.90;;;;;;8362482;28;19909;-57
2024/03/10 04:51:40;;;;;;;;;;;19.60;42.90;;;;;;8362238;28;20361;-56
2024/03/10 04:55:40;;;;;;;;;;;19.40;43.70;;;;;;8362404;28;19913;-57
2024/03/10 04:59:41;;;;;;;;;;;19.40;43.40;;;;;;8362003;28;19947;-57
2024/03/10 05:03:42;;;;;;;;;;;19.50;42.90;;;;;;8361745;28;20294;-56
2024/03/10 05:07:42;;;;;;;;;;;19.60;42.60;;;;;;8361221;28;19909;-57
2024/03/10 05:11:43;;;;;;;;;;;19.60;42.30;;;;;;8361940;28;19966;-56
2024/03/10 05:15:43;;;;;;;;;;;19.60;42.10;;;;;;8361434;28;19916;-57
2024/03/10 05:19:44;;;;;;;;;;;19.60;42.00;;;;;;8361344;28;20244;-57
2024/03/10 05:23:45;;;;;;;;;;;19.60;41.90;;;;;;8361330;28;19908;-57
2024/03/10 05:27:45;;;;;;;;;;;19.60;41.70;;;;;;8361107;28;19908;-59
2024/03/10 05:31:46;;;;;;;;;;;19.60;41.60;;;;;;8360961;28;20562;-58
2024/03/10 05:35:49;;;;;;;;;;;19.60;41.60;;;;;;8361151;28;19909;-58
2024/03/10 05:39:50;;;;;;;;;;;19.60;42.60;;;;;;8360728;28;19935;-59
2024/03/10 05:43:50;;;;;;;;;;;19.40;43.40;;;;;;8360457;28;19982;-59
2024/03/10 05:47:51;;;;;;;;;;;19.40;43.10;;;;;;8360837;28;20129;-59
2024/03/10 05:51:52;;;;;;;;;;;19.50;42.60;;;;;;8360516;28;19912;-58
2024/03/10 05:55:54;;;;;;;;;;;19.50;42.80;;;;;;8360487;28;19909;-58
2024/03/10 05:59:55;;;;;;;;;;;19.60;42.10;;;;;;8360228;28;19944;-56
2024/03/10 06:03:56;;;;;;;;;;;19.60;41.80;;;;;;8360153;28;19908;-59
2024/03/10 06:07:56;;;;;;;;;;;19.60;41.70;;;;;;8360465;28;20004;-58
2024/03/10 06:11:57;;;;;;;;;;;19.60;41.60;;;;;;8359912;28;19916;-58
2024/03/10 06:15:57;;;;;;;;;;;19.60;41.50;;;;;;8361162;28;19923;-59
2024/03/10 06:28:38;;;;;;;;;;;19.60;42.40;;;;;;8366876;28;19905;-58
2024/03/10 06:32:39;;;;;;;;;;;19.50;43.00;;;;;;8366320;28;20019;-59
2024/03/10 06:36:39;;;;;;;;;;;19.60;42.30;;;;;;8365838;28;19920;-57
2024/03/10 06:40:40;;;;;;;;;;;19.70;41.90;;;;;;8366363;28;19905;-57
2024/03/10 06:44:41;;;;;;;;;;;19.70;41.50;;;;;;8365901;28;20000;-56
2024/03/10 06:48:41;;;;;;;;;;;19.70;41.30;;;;;;8365865;28;20310;-57
2024/03/10 06:52:45;;;;;;;;;;;19.80;41.10;;;;;;8366066;28;19912;-57
2024/03/10 06:56:45;;;;;;;;;;;19.80;41.00;;;;;;8365923;28;19912;-57
2024/03/10 07:00:46;;;;;;;;;;;19.80;40.90;;;;;;8365790;28;19908;-57
2024/03/10 07:04:46;;;;;;;;;;;19.80;40.80;;;;;;8365597;28;19955;-57
2024/03/10 07:08:48;;;;;;;;;;;19.80;40.80;;;;;;8365324;28;19909;-57
2024/03/10 07:12:48;;;;;;;;;;;19.80;40.80;;;;;;8365207;28;19924;-57
2024/03/10 07:16:49;;;;;;;;;;;19.60;42.10;;;;;;8365352;28;19908;-57
2024/03/10 07:20:50;;;;;;;;;;;19.60;42.60;;;;;;8364941;28;19908;-57
2024/03/10 07:24:50;;;;;;;;;;;19.60;41.90;;;;;;8365207;28;20298;-57
2024/03/10 07:28:51;;;;;;;;;;;19.70;41.40;;;;;;8364157;28;19913;-57
2024/03/10 07:32:53;;;;;;;;;;;19.70;41.10;;;;;;8364559;28;20394;-58
2024/03/10 07:36:54;;;;;;;;;;;19.80;41.00;;;;;;8364796;28;19904;-57
2024/03/10 07:40:55;;;;;;;;;;;19.80;40.80;;;;;;8364333;28;20362;-57
2024/03/10 07:44:55;;;;;;;;;;;19.80;40.70;;;;;;8364206;28;19908;-57
2024/03/10 07:49:00;;;;;;;;;;;19.80;40.60;;;;;;8364088;28;19992;-59
2024/03/10 07:53:01;;;;;;;;;;;19.80;40.50;;;;;;8364004;28;20376;-59
2024/03/10 07:57:01;;;;;;;;;;;19.90;40.50;;;;;;8363995;28;19944;-59
2024/03/10 08:01:03;;;;;;;;;;;19.80;40.80;;;;;;8363727;28;20354;-58
2024/03/10 08:05:06;;;;;;;;;;;19.70;41.90;;;;;;8363634;28;19916;-57
2024/03/10 08:09:06;;;;;;;;;;;19.60;42.10;;;;;;8363396;28;19904;-57
2024/03/10 08:13:07;;;;;;;;;;;19.60;41.50;;;;;;8364095;28;19924;-58
2024/03/10 08:17:08;;;;;;;;;;;19.70;41.20;;;;;;8363233;28;19909;-59
2024/03/10 08:21:10;;;;;;;;;;;19.70;40.90;;;;;;8362977;28;20011;-59
2024/03/10 08:25:11;;;;;;;;;;;19.70;40.70;;;;;;8363064;28;19909;-59
2024/03/10 08:29:11;;;;;;;;;;;19.80;40.60;;;;;;8362924;28;19913;-59
2024/03/10 08:33:13;;;;;;;;;;;19.80;40.50;;;;;;8362780;28;20405;-59
2024/03/10 08:37:13;;;;;;;;;;;19.80;40.40;;;;;;8362742;28;19916;-57
2024/03/10 08:41:14;;;;;;;;;;;19.80;40.80;;;;;;8361740;28;19948;-58
2024/03/10 08:45:14;;;;;;;;;;;19.80;40.20;;;;;;8327923;28;20373;-57
2024/03/10 08:49:15;;;;;;;;;;;19.80;40.60;;;;;;8329428;28;19905;-58
2024/03/10 08:53:16;;;;;;;;;;;19.70;41.70;;;;;;8328932;28;19913;-59
2024/03/10 08:57:16;;;;;;;;;;;19.70;41.80;;;;;;8330124;28;20258;-58
2024/03/10 09:01:17;;;;;;;;;;;19.60;41.80;;;;;;8329148;28;19909;-58
2024/03/10 09:05:18;;;;;;;;;;;19.70;41.00;;;;;;8328602;28;19909;-57
2024/03/10 09:09:19;;;;;;;;;;;19.70;40.80;;;;;;8327602;28;20267;-58
2024/03/10 09:13:20;;;;;;;;;;;19.70;40.60;;;;;;8344803;28;19917;-59
2024/03/10 09:17:21;;;;;;;;;;;19.70;40.40;;;;;;8361441;28;19959;-58
2024/03/10 09:21:22;;;;;;;;;;;19.70;40.30;;;;;;8361532;28;19909;-57
2024/03/10 09:25:23;;;;;;;;;;;19.70;40.20;;;;;;8361520;28;19991;-59
2024/03/10 09:29:26;;;;;;;;;;;19.80;40.70;;;;;;8361043;28;19909;-59
2024/03/10 09:33:26;;;;;;;;;;;19.80;40.10;;;;;;8360885;28;19917;-59
2024/03/10 09:37:28;;;;;;;;;;;19.70;40.70;;;;;;8360985;28;19951;-59
2024/03/10 09:41:30;;;;;;;;;;;19.60;41.60;;;;;;8360877;28;19912;-59
2024/03/10 09:45:37;;;;;;;;;;;19.60;41.60;;;;;;8360547;28;20006;-58
2024/03/10 09:49:38;;;;;;;;;;;19.60;41.10;;;;;;8360693;28;19905;-59
2024/03/10 09:53:40;;;;;;;;;;;19.60;40.70;;;;;;8360063;28;19920;-59
2024/03/10 09:57:40;;;;;;;;;;;19.70;40.50;;;;;;8360431;28;19905;-58
2024/03/10 10:01:46;;;;;;;;;;;19.70;40.40;;;;;;8360470;28;19920;-58
2024/03/10 10:05:47;;;;;;;;;;;19.70;40.10;;;;;;8360343;28;20388;-56
2024/03/10 10:09:54;;;;;;;;;;;19.80;40.10;;;;;;8360295;28;20321;-59
2024/03/10 10:14:09;;;;;;;;;;;19.80;40.00;;;;;;8360116;28;19920;-59
2024/03/10 10:18:15;;;;;;;;;;;19.80;39.90;;;;;;8359157;28;20034;-59
2024/03/10 10:22:20;;;;;;;;;;;19.80;39.90;;;;;;8360437;28;19958;-58
2024/03/10 10:26:21;;;;;;;;;;;19.80;40.70;;;;;;8359855;28;20271;-58
2024/03/10 10:30:23;;;;;;;;;;;19.60;41.60;;;;;;8360047;28;19913;-59
2024/03/10 10:34:24;;;;;;;;;;;19.60;41.30;;;;;;8359707;28;19956;-59
2024/03/10 10:38:24;;;;;;;;;;;19.70;40.90;;;;;;8359770;28;19936;-59
2024/03/10 10:42:25;;;;;;;;;;;19.70;40.50;;;;;;8360990;28;19909;-58
2024/03/10 10:46:27;;;;;;;;;;;19.70;40.30;;;;;;8358384;28;20367;-58
2024/03/10 10:50:34;;;;;;;;;;;19.70;40.30;;;;;;8359475;28;19912;-59
2024/03/10 10:54:36;;;;;;;;;;;19.70;40.00;;;;;;8359623;28;19904;-59
2024/03/10 10:58:37;;;;;;;;;;;19.70;39.90;;;;;;8359841;28;19905;-58
2024/03/10 11:02:44;;;;;;;;;;;19.80;39.90;;;;;;8360203;28;19911;-59
2024/03/10 11:06:45;;;;;;;;;;;19.70;39.80;;;;;;8365636;28;19928;-59
2024/03/10 11:10:47;;;;;;;;;;;19.80;39.80;;;;;;8365328;28;19919;-57
2024/03/10 11:14:48;;;;;;;;;;;19.60;41.00;;;;;;8365137;28;20437;-59
2024/03/10 11:18:49;;;;;;;;;;;19.50;41.70;;;;;;8365427;28;20118;-57
2024/03/10 11:22:54;;;;;;;;;;;19.60;41.20;;;;;;8365021;28;19919;-56
2024/03/10 11:27:15;;;;;;;;;;;19.60;40.70;;;;;;8365020;28;19904;-57
2024/03/10 11:31:19;;;;;;;;;;;19.70;40.40;;;;;;8364568;28;20358;-57
2024/03/10 11:35:21;;;;;;;;;;;19.70;40.20;;;;;;8365227;28;19909;-57
2024/03/10 11:39:21;;;;;;;;;;;19.70;40.00;;;;;;8364452;28;19948;-56
2024/03/10 11:43:22;;;;;;;;;;;19.80;39.90;;;;;;8364147;28;19912;-56
2024/03/10 11:47:23;;;;;;;;;;;19.80;39.80;;;;;;8364246;28;20030;-56
2024/03/10 11:51:28;;;;;;;;;;;19.80;39.60;;;;;;8364112;28;19912;-56
2024/03/10 11:55:28;;;;;;;;;;;19.80;39.60;;;;;;8363949;28;19995;-56
2024/03/10 11:59:30;;;;;;;;;;;19.80;39.60;;;;;;8364314;28;19913;-57
2024/03/10 12:03:34;;;;;;;;;;;19.70;40.80;;;;;;8363818;28;19961;-57
2024/03/10 12:07:35;;;;;;;;;;;19.60;41.30;;;;;;8363848;28;19944;-56
2024/03/10 12:11:36;;;;;;;;;;;19.60;40.70;;;;;;8363902;28;19960;-57
2024/03/10 12:15:37;;;;;;;;;;;19.70;40.30;;;;;;8362886;28;19921;-57
2024/03/10 12:19:39;;;;;;;;;;;19.70;40.10;;;;;;8363319;28;19955;-57
2024/03/10 12:23:44;;;;;;;;;;;19.70;40.00;;;;;;8363050;28;20415;-57
2024/03/10 12:27:47;;;;;;;;;;;19.70;39.80;;;;;;8362704;28;19905;-57
2024/03/10 12:31:48;;;;;;;;;;;19.70;39.70;;;;;;8361899;28;20342;-57
2024/03/10 12:35:49;;;;;;;;;;;19.70;39.70;;;;;;8362633;28;19979;-57
2024/03/10 12:39:55;;;;;;;;;;;19.70;39.60;;;;;;8362449;28;20286;-57
2024/03/10 12:43:57;;;;;;;;;;;19.70;39.50;;;;;;8362282;28;19912;-56
2024/03/10 12:47:58;;;;;;;;;;;19.70;39.90;;;;;;8362318;28;20391;-57
2024/03/10 12:51:58;;;;;;;;;;;19.50;41.00;;;;;;8361989;28;20290;-57
2024/03/10 12:55:59;;;;;;;;;;;19.50;41.30;;;;;;8360915;28;19959;-57
2024/03/10 12:59:59;;;;;;;;;;;19.50;40.70;;;;;;8361830;28;19909;-57
2024/03/10 13:04:00;;;;;;;;;;;19.60;40.30;;;;;;8360903;28;20283;-57
2024/03/10 13:08:01;;;;;;;;;;;19.70;40.00;;;;;;8361721;28;20011;-57
2024/03/10 13:12:02;;;;;;;;;;;19.70;39.80;;;;;;8361437;28;20418;-57
2024/03/10 13:16:03;;;;;;;;;;;19.70;40.30;;;;;;8361360;28;19966;-57
2024/03/10 13:20:11;;;;;;;;;;;19.80;39.60;;;;;;8361405;28;19940;-57
2024/03/10 13:24:11;;;;;;;;;;;19.80;39.50;;;;;;8361432;28;20007;-56
2024/03/10 13:28:17;;;;;;;;;;;19.80;39.30;;;;;;8360563;28;19916;-57
2024/03/10 13:32:18;;;;;;;;;;;19.80;39.30;;;;;;8360870;28;20366;-57
2024/03/10 13:36:19;;;;;;;;;;;19.80;39.90;;;;;;8361931;28;20278;-57
2024/03/10 13:40:20;;;;;;;;;;;19.60;40.80;;;;;;8360955;28;20359;-57
2024/03/10 13:44:20;;;;;;;;;;;19.60;40.90;;;;;;8360412;28;20338;-56
2024/03/10 13:48:21;;;;;;;;;;;19.70;40.40;;;;;;8360751;28;19912;-57
2024/03/10 13:52:22;;;;;;;;;;;19.60;40.00;;;;;;8360539;28;19917;-57
2024/03/10 13:56:24;;;;;;;;;;;19.70;39.80;;;;;;8360494;28;19909;-57
2024/03/10 14:00:24;;;;;;;;;;;19.70;40.20;;;;;;8360379;28;20016;-57
2024/03/10 14:04:26;;;;;;;;;;;19.70;39.60;;;;;;8359122;28;19909;-57
2024/03/10 14:08:27;;;;;;;;;;;19.70;39.40;;;;;;8360231;28;19909;-57
2024/03/10 14:12:27;;;;;;;;;;;19.80;39.40;;;;;;8360662;28;19920;-57
2024/03/10 14:16:28;;;;;;;;;;;19.80;39.30;;;;;;8360008;28;20389;-57
2024/03/10 14:20:29;;;;;;;;;;;19.80;39.20;;;;;;8360043;28;19909;-57
2024/03/10 14:24:29;;;;;;;;;;;19.70;39.80;;;;;;8360147;28;20058;-57
2024/03/10 14:28:30;;;;;;;;;;;19.50;40.90;;;;;;8359837;28;19909;-57
2024/03/10 14:32:31;;;;;;;;;;;19.50;40.90;;;;;;8360007;28;19919;-57
2024/03/10 14:36:31;;;;;;;;;;;19.60;40.30;;;;;;8359949;28;19962;-57
2024/03/10 14:40:33;;;;;;;;;;;19.60;40.00;;;;;;8365213;28;20613;-57
2024/03/10 14:44:35;;;;;;;;;;;19.70;39.80;;;;;;8367074;28;19909;-57
2024/03/10 14:48:37;;;;;;;;;;;19.70;39.60;;;;;;8366194;28;19909;-57
2024/03/10 14:52:37;;;;;;;;;;;19.70;39.40;;;;;;8366159;28;19914;-56
2024/03/10 14:56:38;;;;;;;;;;;19.70;39.40;;;;;;8366010;28;19908;-57
2024/03/10 15:04:39;;;;;;;;;;;19.70;39.10;;;;;;8365924;28;19909;-56
2024/03/10 15:08:40;;;;;;;;;;;19.70;39.10;;;;;;8365457;28;20132;-56
2024/03/10 15:12:40;;;;;;;;;;;19.70;39.90;;;;;;8365398;28;19909;-56
2024/03/10 15:16:41;;;;;;;;;;;19.60;40.80;;;;;;8365553;28;19928;-56
2024/03/10 15:20:46;;;;;;;;;;;19.50;40.60;;;;;;8365576;28;19919;-56
2024/03/10 15:24:47;;;;;;;;;;;19.60;40.20;;;;;;8364986;28;19952;-57
2024/03/10 15:28:48;;;;;;;;;;;19.70;39.80;;;;;;8364866;28;19908;-56
2024/03/10 15:32:50;;;;;;;;;;;19.70;39.70;;;;;;8365247;28;20251;-56
2024/03/10 15:36:50;;;;;;;;;;;19.70;39.50;;;;;;8364773;28;19912;-57
2024/03/10 15:40:51;;;;;;;;;;;19.70;39.30;;;;;;8364472;28;19974;-56
2024/03/10 15:44:52;;;;;;;;;;;19.80;39.30;;;;;;8365130;28;20370;-56
2024/03/10 15:48:53;;;;;;;;;;;19.70;39.10;;;;;;8363562;28;20286;-57
2024/03/10 15:52:53;;;;;;;;;;;19.80;39.10;;;;;;8364109;28;19919;-57
2024/03/10 15:56:57;;;;;;;;;;;19.80;39.00;;;;;;8365101;28;19997;-57
2024/03/10 16:00:58;;;;;;;;;;;19.60;40.00;;;;;;8364430;28;19905;-57
2024/03/10 16:05:00;;;;;;;;;;;19.50;40.70;;;;;;8363853;28;19920;-57
2024/03/10 16:09:10;;;;;;;;;;;19.50;40.60;;;;;;8363725;28;20398;-57
2024/03/10 16:13:17;;;;;;;;;;;19.60;40.10;;;;;;8363225;28;20371;-57
2024/03/10 16:17:18;;;;;;;;;;;19.60;39.70;;;;;;8363432;28;19954;-56
2024/03/10 16:21:23;;;;;;;;;;;19.70;39.50;;;;;;8363412;28;19905;-56
2024/03/10 16:25:24;;;;;;;;;;;19.70;39.40;;;;;;8363312;28;19955;-57
2024/03/10 16:29:26;;;;;;;;;;;19.70;39.20;;;;;;8363069;28;19959;-56
2024/03/10 16:33:26;;;;;;;;;;;19.70;39.10;;;;;;8362984;28;19966;-57
2024/03/10 16:37:27;;;;;;;;;;;19.70;39.00;;;;;;8362779;28;19905;-57
2024/03/10 16:41:30;;;;;;;;;;;19.80;39.00;;;;;;8362829;28;19904;-57
2024/03/10 16:45:31;;;;;;;;;;;19.80;38.90;;;;;;8362775;28;19994;-57
2024/03/10 16:49:31;;;;;;;;;;;19.60;40.00;;;;;;8362510;28;19913;-57
2024/03/10 16:53:32;;;;;;;;;;;19.60;40.70;;;;;;8362503;28;19924;-57
2024/03/10 16:57:33;;;;;;;;;;;19.60;40.20;;;;;;8362381;28;20007;-57
2024/03/10 17:01:34;;;;;;;;;;;19.60;39.80;;;;;;8361388;28;19909;-57
2024/03/10 17:05:34;;;;;;;;;;;19.70;39.60;;;;;;8360952;28;20007;-57
2024/03/10 17:09:35;;;;;;;;;;;19.70;39.40;;;;;;8362016;28;19954;-60
2024/03/10 17:13:35;;;;;;;;;;;19.70;39.30;;;;;;8361369;28;19927;-57
2024/03/10 17:17:38;;;;;;;;;;;19.70;39.20;;;;;;8361767;28;19909;-58
2024/03/10 17:21:38;;;;;;;;;;;19.70;39.00;;;;;;8361613;28;19904;-59
2024/03/10 17:25:39;;;;;;;;;;;19.80;39.00;;;;;;8361536;28;20382;-57
2024/03/10 17:29:40;;;;;;;;;;;19.80;38.90;;;;;;8361830;28;19905;-59
2024/03/10 17:33:42;;;;;;;;;;;19.80;38.90;;;;;;8361122;28;20325;-59
2024/03/10 17:37:44;;;;;;;;;;;19.60;40.10;;;;;;8361146;28;20321;-58
2024/03/10 17:41:44;;;;;;;;;;;19.50;40.70;;;;;;8361663;28;19904;-59
2024/03/10 17:45:46;;;;;;;;;;;19.70;40.10;;;;;;8360919;28;19909;-56
2024/03/10 17:49:47;;;;;;;;;;;19.70;39.60;;;;;;8360688;28;19909;-59
2024/03/10 17:53:47;;;;;;;;;;;19.70;39.40;;;;;;8360694;28;19913;-56
2024/03/10 17:57:48;;;;;;;;;;;19.70;39.20;;;;;;8360655;28;19908;-58
2024/03/10 18:01:48;;;;;;;;;;;19.70;39.20;;;;;;8360714;28;19911;-59
2024/03/10 18:05:49;;;;;;;;;;;19.80;39.10;;;;;;8360483;28;20278;-60
2024/03/10 18:09:50;;;;;;;;;;;19.80;39.00;;;;;;8360926;28;19958;-59
2024/03/10 18:13:50;;;;;;;;;;;19.80;38.90;;;;;;8359798;28;19927;-60
2024/03/10 18:17:52;;;;;;;;;;;19.80;38.80;;;;;;8360123;28;19908;-57
2024/03/10 18:21:54;;;;;;;;;;;19.80;38.90;;;;;;8360480;28;19909;-57
2024/03/10 18:25:55;;;;;;;;;;;19.60;40.10;;;;;;8360115;28;19912;-57
2024/03/10 18:29:56;;;;;;;;;;;19.50;40.70;;;;;;8360011;28;19912;-57
2024/03/10 18:33:57;;;;;;;;;;;19.60;40.60;;;;;;8360113;28;19960;-57
2024/03/10 18:37:58;;;;;;;;;;;19.60;39.60;;;;;;8359761;28;19916;-57
2024/03/10 18:41:59;;;;;;;;;;;19.70;39.40;;;;;;8359659;28;19947;-57
2024/03/10 18:46:00;;;;;;;;;;;19.60;39.20;;;;;;8359817;28;19931;-57
2024/03/10 18:50:01;;;;;;;;;;;19.70;39.10;;;;;;8359840;28;20427;-57
2024/03/10 18:54:02;;;;;;;;;;;19.70;39.00;;;;;;8359725;28;19971;-57
2024/03/10 18:58:03;;;;;;;;;;;19.70;38.90;;;;;;8359503;28;19913;-56
2024/03/10 19:02:04;;;;;;;;;;;19.70;38.80;;;;;;8358392;28;19912;-57
2024/03/10 19:06:05;;;;;;;;;;;19.70;38.80;;;;;;8358286;28;20281;-57
2024/03/10 19:10:07;;;;;;;;;;;19.70;39.00;;;;;;8359441;28;20294;-57
2024/03/10 19:14:07;;;;;;;;;;;19.60;40.10;;;;;;8357558;28;19928;-57
2024/03/10 19:18:08;;;;;;;;;;;19.60;40.40;;;;;;8359269;28;20446;-57
2024/03/10 19:22:09;;;;;;;;;;;19.60;39.80;;;;;;8359473;28;20290;-57
2024/03/10 19:26:18;;;;;;;;;;;19.60;39.40;;;;;;8363747;28;19916;-57
2024/03/10 19:30:21;;;;;;;;;;;19.70;39.20;;;;;;8364950;28;19909;-57
2024/03/10 19:34:25;;;;;;;;;;;19.70;39.00;;;;;;8364605;28;19962;-58
2024/03/10 19:38:26;;;;;;;;;;;19.80;38.90;;;;;;8364816;28;19916;-57
2024/03/10 19:42:32;;;;;;;;;;;19.70;38.80;;;;;;8364578;28;19909;-59
2024/03/10 19:46:33;;;;;;;;;;;19.80;38.70;;;;;;8364468;28;19915;-57
2024/03/10 19:50:36;;;;;;;;;;;19.80;38.60;;;;;;8364352;28;19909;-57
2024/03/10 19:54:41;;;;;;;;;;;19.80;38.60;;;;;;8362918;28;20274;-57
2024/03/10 19:58:42;;;;;;;;;;;19.80;39.10;;;;;;8364404;28;19909;-58
2024/03/10 20:02:43;;;;;;;;;;;19.60;40.10;;;;;;8364654;28;19950;-58
2024/03/10 20:06:43;;;;;;;;;;;19.60;40.10;;;;;;8363681;28;19955;-57
2024/03/10 20:10:46;;;;;;;;;;;19.60;39.50;;;;;;8363763;28;19913;-59
2024/03/10 20:14:47;;;;;;;;;;;19.70;39.30;;;;;;8363289;28;20433;-57
2024/03/10 20:18:49;;;;;;;;;;;19.70;39.10;;;;;;8363218;28;20252;-56
2024/03/10 20:22:49;;;;;;;;;;;19.80;38.90;;;;;;8363258;28;20447;-59
2024/03/10 20:26:51;;;;;;;;;;;19.80;38.80;;;;;;8363288;28;20267;-58
2024/03/10 20:30:54;;;;;;;;;;;19.80;38.70;;;;;;8362729;28;20358;-59
2024/03/10 20:34:55;;;;;;;;;;;19.80;38.60;;;;;;8363005;28;19909;-57
2024/03/10 20:38:58;;;;;;;;;;;19.90;38.60;;;;;;8362758;28;19909;-59
2024/03/10 20:43:01;;;;;;;;;;;19.90;38.50;;;;;;8362559;28;19958;-59
2024/03/10 20:47:02;;;;;;;;;;;19.80;39.10;;;;;;8362596;28;20063;-59
2024/03/10 20:51:06;;;;;;;;;;;19.60;40.00;;;;;;8362383;28;19916;-59
2024/03/10 20:55:06;;;;;;;;;;;19.60;40.00;;;;;;8362350;28;19952;-58
2024/03/10 20:59:11;;;;;;;;;;;19.70;39.40;;;;;;8362184;28;19909;-58
2024/03/10 21:03:13;;;;;;;;;;;19.70;39.20;;;;;;8362001;28;20410;-58
2024/03/10 21:07:14;;;;;;;;;;;19.70;38.90;;;;;;8361978;28;19951;-58
2024/03/10 21:11:24;;;;;;;;;;;19.80;38.80;;;;;;8361844;28;19909;-57
2024/03/10 21:15:28;;;;;;;;;;;19.80;38.70;;;;;;8361551;28;19955;-59
2024/03/10 21:19:37;;;;;;;;;;;19.80;38.60;;;;;;8361526;28;20012;-58
2024/03/10 21:23:41;;;;;;;;;;;19.80;38.60;;;;;;8361245;28;20373;-57
2024/03/10 21:27:45;;;;;;;;;;;19.80;38.60;;;;;;8361222;28;20011;-57
2024/03/10 21:31:55;;;;;;;;;;;19.80;38.40;;;;;;8360023;28;20263;-58
2024/03/10 21:36:01;;;;;;;;;;;19.60;39.50;;;;;;8360830;28;19905;-58
2024/03/10 21:40:02;;;;;;;;;;;19.60;40.10;;;;;;8360938;28;20003;-59
2024/03/10 21:44:03;;;;;;;;;;;19.60;39.70;;;;;;8360616;28;19943;-59
2024/03/10 21:48:07;;;;;;;;;;;19.60;39.30;;;;;;8360739;28;19909;-59
2024/03/10 21:52:10;;;;;;;;;;;19.70;39.10;;;;;;8371997;28;19908;-57
2024/03/10 21:56:12;;;;;;;;;;;19.70;38.90;;;;;;8360530;28;19959;-57
2024/03/10 22:00:16;;;;;;;;;;;19.70;38.70;;;;;;8360474;28;19923;-57
2024/03/10 22:04:16;;;;;;;;;;;19.70;38.60;;;;;;8360145;28;19962;-56
2024/03/10 22:08:17;;;;;;;;;;;19.80;38.60;;;;;;8360961;28;19905;-56
2024/03/10 22:12:17;;;;;;;;;;;19.80;38.50;;;;;;8360246;28;19912;-57
2024/03/10 22:16:18;;;;;;;;;;;19.80;38.40;;;;;;8359893;28;20046;-56
2024/03/10 22:20:26;;;;;;;;;;;19.70;38.30;;;;;;8360017;28;19913;-57
2024/03/10 22:24:26;;;;;;;;;;;19.60;39.70;;;;;;8360163;28;19956;-57
2024/03/10 22:28:27;;;;;;;;;;;19.50;40.20;;;;;;8359608;28;19904;-57
2024/03/10 22:32:41;;;;;;;;;;;19.50;39.70;;;;;;8359821;28;20011;-57
2024/03/10 22:36:42;;;;;;;;;;;19.60;39.40;;;;;;8359776;28;19909;-57
2024/03/10 22:40:43;;;;;;;;;;;19.60;39.10;;;;;;8359512;28;19920;-57
2024/03/10 22:44:43;;;;;;;;;;;19.70;38.90;;;;;;8359500;28;19908;-57
2024/03/10 22:48:44;;;;;;;;;;;19.70;38.80;;;;;;8359637;28;20338;-57
2024/03/10 22:52:45;;;;;;;;;;;19.70;38.70;;;;;;8359347;28;19913;-57
2024/03/10 22:56:47;;;;;;;;;;;19.70;38.60;;;;;;8359621;28;19999;-58
2024/03/10 23:00:54;;;;;;;;;;;19.70;38.60;;;;;;8362627;28;19909;-56
2024/03/10 23:04:54;;;;;;;;;;;19.70;38.50;;;;;;8365741;28;19996;-57
2024/03/10 23:08:55;;;;;;;;;;;19.70;38.70;;;;;;8365603;28;19908;-56
2024/03/10 23:12:58;;;;;;;;;;;19.50;40.00;;;;;;8365297;28;19909;-57
2024/03/10 23:17:08;;;;;;;;;;;19.30;40.50;;;;;;8365472;28;19905;-56
2024/03/10 23:21:09;;;;;;;;;;;19.40;39.90;;;;;;8365425;28;19912;-56
2024/03/10 23:25:11;;;;;;;;;;;19.50;39.40;;;;;;8365334;28;19909;-55
2024/03/10 23:29:15;;;;;;;;;;;19.50;39.20;;;;;;8365120;28;19915;-56
2024/03/10 23:33:15;;;;;;;;;;;19.50;39.00;;;;;;8365059;28;19936;-57
2024/03/10 23:37:17;;;;;;;;;;;19.60;38.90;;;;;;8364825;28;19916;-56
2024/03/10 23:41:18;;;;;;;;;;;19.50;38.70;;;;;;8364684;28;19909;-57
2024/03/10 23:45:20;;;;;;;;;;;19.60;38.70;;;;;;8364423;28;19908;-56
2024/03/10 23:49:21;;;;;;;;;;;19.60;38.60;;;;;;8364333;28;19905;-57